createdAt,value
2023-04-18T00:01:12.331Z,68.82
2023-04-18T00:03:45.857Z,68.86
2023-04-18T00:06:22.210Z,68.30
2023-04-18T00:08:55.118Z,68.54
2023-04-18T00:11:27.964Z,68.56
2023-04-18T00:14:00.758Z,68.99
2023-04-18T00:16:33.902Z,69.17
2023-04-18T00:19:08.775Z,68.99
2023-04-18T00:21:44.756Z,69.19
2023-04-18T00:24:17.746Z,69.30
2023-04-18T00:26:50.673Z,69.45
2023-04-18T00:29:31.717Z,69.42
2023-04-18T00:32:04.564Z,69.38
2023-04-18T00:34:37.613Z,69.43
2023-04-18T00:37:11.999Z,69.46
2023-04-18T00:39:45.096Z,69.55
2023-04-18T00:42:17.860Z,69.64
2023-04-18T00:44:51.583Z,69.04
2023-04-18T00:47:24.465Z,69.18
2023-04-18T00:49:57.900Z,69.44
2023-04-18T00:52:33.796Z,69.50
2023-04-18T00:55:09.477Z,69.73
2023-04-18T00:57:43.350Z,69.81
2023-04-18T01:00:16.787Z,69.77
2023-04-18T01:02:53.216Z,69.65
2023-04-18T01:05:27.306Z,69.81
2023-04-18T01:08:01.998Z,69.96
2023-04-18T01:10:34.998Z,70.02
2023-04-18T01:13:12.299Z,69.93
2023-04-18T01:15:47.547Z,70.04
2023-04-18T01:18:20.887Z,69.94
2023-04-18T01:20:57.116Z,70.10
2023-04-18T01:23:31.507Z,70.19
2023-04-18T01:26:05.967Z,70.13
2023-04-18T01:28:38.784Z,70.22
2023-04-18T01:31:13.814Z,70.30
2023-04-18T01:33:46.979Z,70.46
2023-04-18T01:36:22.135Z,70.42
2023-04-18T01:38:55.036Z,70.43
2023-04-18T01:41:32.593Z,70.45
2023-04-18T01:44:06.420Z,70.62
2023-04-18T01:46:40.205Z,70.52
2023-04-18T01:49:12.872Z,69.93
2023-04-18T01:51:47.930Z,70.08
2023-04-18T01:54:20.804Z,70.29
2023-04-18T01:56:54.960Z,70.42
2023-04-18T01:59:28.660Z,70.33
2023-04-18T02:02:01.608Z,70.24
2023-04-18T02:04:34.580Z,70.37
2023-04-18T02:07:07.647Z,70.33
2023-04-18T02:09:41.327Z,69.93
2023-04-18T02:12:17.717Z,70.19
2023-04-18T02:14:53.763Z,70.57
2023-04-18T02:17:26.624Z,70.43
2023-04-18T02:20:00.654Z,70.49
2023-04-18T02:22:33.484Z,70.38
2023-04-18T02:25:07.619Z,70.49
2023-04-18T02:27:41.883Z,70.54
2023-04-18T02:30:15.224Z,70.69
2023-04-18T02:32:48.106Z,70.59
2023-04-18T02:35:21.283Z,70.61
2023-04-18T02:37:54.747Z,70.51
2023-04-18T02:40:27.552Z,70.63
2023-04-18T02:43:02.586Z,70.59
2023-04-18T02:45:35.575Z,70.63
2023-04-18T02:48:08.605Z,70.67
2023-04-18T02:50:41.985Z,70.58
2023-04-18T02:53:14.903Z,70.71
2023-04-18T02:55:58.331Z,70.47
2023-04-18T02:58:41.290Z,70.45
2023-04-18T03:01:34.255Z,70.02
2023-04-18T03:04:14.259Z,70.13
2023-04-18T03:06:50.112Z,70.20
2023-04-18T03:09:24.301Z,70.26
2023-04-18T03:12:06.552Z,70.46
2023-04-18T03:14:44.485Z,70.41
2023-04-18T03:17:19.094Z,69.99
2023-04-18T03:19:54.746Z,70.32
2023-04-18T03:22:27.655Z,70.38
2023-04-18T03:25:05.271Z,70.68
2023-04-18T03:27:47.975Z,70.38
2023-04-18T03:30:24.444Z,70.51
2023-04-18T03:33:02.858Z,70.54
2023-04-18T03:35:36.082Z,70.40
2023-04-18T03:38:08.889Z,70.34
2023-04-18T03:40:44.849Z,70.41
2023-04-18T03:43:25.156Z,70.30
2023-04-18T03:46:02.078Z,70.29
2023-04-18T03:48:37.321Z,70.17
2023-04-18T03:51:15.126Z,70.29
2023-04-18T03:53:50.308Z,70.35
2023-04-18T03:56:24.045Z,70.38
2023-04-18T03:58:59.231Z,70.47
2023-04-18T04:01:34.033Z,70.73
2023-04-18T04:04:09.359Z,70.52
2023-04-18T04:06:44.471Z,70.60
2023-04-18T04:09:17.525Z,70.63
2023-04-18T04:11:51.431Z,70.66
2023-04-18T04:14:25.252Z,70.77
2023-04-18T04:17:00.905Z,70.88
2023-04-18T04:19:34.698Z,71.15
2023-04-18T04:22:14.912Z,71.06
2023-04-18T04:24:48.788Z,71.28
2023-04-18T04:27:26.950Z,71.14
2023-04-18T04:30:02.604Z,71.17
2023-04-18T04:32:38.930Z,71.20
2023-04-18T04:35:11.926Z,71.08
2023-04-18T04:37:45.206Z,71.23
2023-04-18T04:40:27.924Z,71.14
2023-04-18T04:43:28.805Z,71.02
2023-04-18T04:46:03.970Z,70.95
2023-04-18T04:48:38.338Z,70.91
2023-04-18T04:51:11.242Z,70.95
2023-04-18T04:53:44.224Z,70.91
2023-04-18T04:56:17.188Z,70.85
2023-04-18T04:58:50.549Z,70.68
2023-04-18T05:01:27.623Z,70.74
2023-04-18T05:04:02.201Z,71.13
2023-04-18T05:06:35.448Z,70.94
2023-04-18T05:09:08.370Z,70.80
2023-04-18T05:11:41.169Z,70.84
2023-04-18T05:14:14.108Z,70.86
2023-04-18T05:16:47.583Z,70.93
2023-04-18T05:19:21.777Z,71.04
2023-04-18T05:21:54.775Z,70.92
2023-04-18T05:24:27.664Z,70.78
2023-04-18T05:27:01.262Z,70.71
2023-04-18T05:29:34.148Z,70.40
2023-04-18T05:32:07.671Z,70.51
2023-04-18T05:34:48.358Z,70.41
2023-04-18T05:37:22.268Z,70.30
2023-04-18T05:39:55.099Z,70.21
2023-04-18T05:42:27.962Z,70.16
2023-04-18T05:45:01.000Z,70.18
2023-04-18T05:47:33.967Z,70.08
2023-04-18T05:50:09.881Z,70.08
2023-04-18T05:52:42.829Z,70.03
2023-04-18T05:55:15.643Z,69.92
2023-04-18T05:57:48.565Z,69.77
2023-04-18T06:00:21.929Z,69.74
2023-04-18T06:02:55.226Z,69.94
2023-04-18T06:05:30.298Z,69.64
2023-04-18T06:08:03.612Z,69.87
2023-04-18T06:10:38.860Z,69.75
2023-04-18T06:13:12.311Z,69.65
2023-04-18T06:15:45.181Z,69.63
2023-04-18T06:18:18.064Z,69.61
2023-04-18T06:20:52.745Z,69.59
2023-04-18T06:23:25.566Z,69.39
2023-04-18T06:25:58.847Z,69.38
2023-04-18T06:28:31.699Z,69.28
2023-04-18T06:31:04.710Z,69.09
2023-04-18T06:33:38.641Z,69.02
2023-04-18T06:36:12.917Z,69.15
2023-04-18T06:38:45.809Z,68.74
2023-04-18T06:41:18.613Z,68.70
2023-04-18T06:44:02.722Z,68.53
2023-04-18T06:46:36.793Z,68.39
2023-04-18T06:49:09.796Z,68.29
2023-04-18T06:51:44.044Z,68.25
2023-04-18T06:54:17.179Z,68.05
2023-04-18T06:56:50.055Z,67.76
2023-04-18T06:59:23.405Z,67.67
2023-04-18T07:01:56.227Z,67.67
2023-04-18T07:04:29.254Z,67.28
2023-04-18T07:07:05.180Z,66.97
2023-04-18T07:09:38.106Z,66.83
2023-04-18T07:12:11.104Z,66.74
2023-04-18T07:14:43.867Z,66.25
2023-04-18T07:17:16.716Z,66.06
2023-04-18T07:19:49.549Z,66.03
2023-04-18T07:22:35.140Z,65.80
2023-04-18T07:25:08.855Z,65.75
2023-04-18T07:27:41.719Z,65.59
2023-04-18T07:30:15.248Z,65.36
2023-04-18T07:32:48.336Z,65.12
2023-04-18T07:35:21.714Z,65.00
2023-04-18T07:37:56.146Z,64.81
2023-04-18T07:40:29.044Z,64.74
2023-04-18T07:43:01.865Z,64.51
2023-04-18T07:45:35.797Z,64.45
2023-04-18T07:48:08.743Z,64.33
2023-04-18T07:50:41.564Z,64.17
2023-04-18T07:53:16.023Z,64.10
2023-04-18T07:55:48.883Z,63.87
2023-04-18T07:58:21.853Z,63.45
2023-04-18T08:00:54.644Z,63.51
2023-04-18T08:03:28.221Z,63.09
2023-04-18T08:06:02.400Z,63.31
2023-04-18T08:08:36.808Z,62.99
2023-04-18T08:11:09.655Z,62.91
2023-04-18T08:13:42.554Z,62.50
2023-04-18T08:16:17.305Z,62.79
2023-04-18T08:18:50.590Z,62.73
2023-04-18T08:21:23.440Z,62.54
2023-04-18T08:23:57.775Z,62.16
2023-04-18T08:26:30.795Z,62.35
2023-04-18T08:29:03.791Z,62.05
2023-04-18T08:31:36.677Z,61.90
2023-04-18T08:34:09.636Z,61.71
2023-04-18T08:36:42.457Z,61.68
2023-04-18T08:39:16.672Z,61.71
2023-04-18T08:41:59.474Z,61.39
2023-04-18T08:44:32.835Z,61.48
2023-04-18T08:47:06.249Z,61.07
2023-04-18T08:49:39.122Z,60.79
2023-04-18T08:52:14.218Z,60.97
2023-04-18T08:54:49.108Z,60.46
2023-04-18T08:57:27.012Z,60.36
2023-04-18T09:00:01.572Z,60.33
2023-04-18T09:02:42.824Z,59.89
2023-04-18T09:05:19.044Z,59.67
2023-04-18T09:07:53.268Z,59.18
2023-04-18T09:10:29.170Z,59.28
2023-04-18T09:13:04.445Z,59.57
2023-04-18T09:15:37.508Z,59.28
2023-04-18T09:18:10.951Z,59.25
2023-04-18T09:20:44.654Z,58.91
2023-04-18T09:23:23.443Z,59.18
2023-04-18T09:25:59.171Z,58.79
2023-04-18T09:28:37.665Z,58.14
2023-04-18T09:31:15.305Z,57.95
2023-04-18T09:33:54.153Z,57.44
2023-04-18T09:36:28.203Z,57.58
2023-04-18T09:39:02.063Z,56.90
2023-04-18T09:41:36.333Z,57.07
2023-04-18T09:44:14.393Z,56.72
2023-04-18T09:46:49.451Z,56.55
2023-04-18T09:49:24.370Z,56.70
2023-04-18T09:51:57.633Z,56.62
2023-04-18T09:54:33.976Z,56.79
2023-04-18T09:57:13.655Z,56.61
2023-04-18T09:59:52.426Z,56.25
2023-04-18T10:02:27.785Z,55.76
2023-04-18T10:05:01.985Z,55.54
2023-04-18T10:07:35.161Z,55.02
2023-04-18T10:10:09.123Z,54.36
2023-04-18T10:12:43.470Z,53.85
2023-04-18T10:15:17.809Z,53.10
2023-04-18T10:18:04.345Z,52.88
2023-04-18T10:20:38.399Z,52.99
2023-04-18T10:23:36.790Z,53.04
2023-04-18T10:26:10.510Z,52.58
2023-04-18T10:28:56.844Z,52.64
2023-04-18T10:31:30.499Z,52.83
2023-04-18T10:34:08.144Z,52.94
2023-04-18T10:37:04.558Z,53.39
2023-04-18T10:39:58.286Z,53.47
2023-04-18T10:42:59.428Z,53.36
2023-04-18T10:45:36.539Z,52.77
2023-04-18T10:48:24.772Z,52.69
2023-04-18T10:51:14.962Z,52.91
2023-04-18T10:53:51.089Z,52.76
2023-04-18T10:56:26.094Z,51.98
2023-04-18T10:59:02.509Z,51.71
2023-04-18T11:01:38.986Z,51.07
2023-04-18T11:04:14.434Z,50.48
2023-04-18T11:06:51.599Z,49.31
2023-04-18T11:09:25.050Z,48.42
2023-04-18T11:12:04.648Z,48.96
2023-04-18T11:14:41.456Z,47.98
2023-04-18T11:17:20.696Z,46.73
2023-04-18T11:20:01.354Z,45.35
2023-04-18T11:22:34.349Z,44.80
2023-04-18T11:25:09.218Z,44.44
2023-04-18T11:27:44.231Z,43.57
2023-04-18T11:30:17.202Z,43.28
2023-04-18T11:32:51.687Z,42.33
2023-04-18T11:35:24.801Z,42.93
2023-04-18T11:37:57.673Z,43.20
2023-04-18T11:40:30.777Z,44.07
2023-04-18T11:43:04.793Z,44.68
2023-04-18T11:45:37.637Z,45.30
2023-04-18T11:48:11.961Z,46.21
2023-04-18T11:50:44.782Z,46.73
2023-04-18T11:53:33.466Z,47.41
2023-04-18T11:56:07.237Z,47.71
2023-04-18T11:58:40.161Z,47.41
2023-04-18T12:01:17.818Z,48.04
2023-04-18T12:04:05.925Z,47.90
2023-04-18T12:06:48.352Z,47.88
2023-04-18T12:09:22.737Z,47.95
2023-04-18T12:11:59.704Z,47.44
2023-04-18T12:14:32.536Z,47.28
2023-04-18T12:17:05.392Z,47.55
2023-04-18T12:19:39.682Z,47.62
2023-04-18T12:22:16.911Z,48.08
2023-04-18T12:25:26.187Z,48.45
2023-04-18T12:28:02.391Z,48.56
2023-04-18T12:30:37.589Z,48.80
2023-04-18T12:33:11.186Z,48.79
2023-04-18T12:35:46.408Z,48.45
2023-04-18T12:38:22.116Z,48.49
2023-04-18T12:40:54.991Z,48.60
2023-04-18T12:43:27.960Z,48.22
2023-04-18T12:46:01.258Z,48.58
2023-04-18T12:48:34.219Z,48.31
2023-04-18T12:51:08.577Z,47.88
2023-04-18T12:53:41.490Z,48.09
2023-04-18T12:56:14.458Z,47.90
2023-04-18T12:58:47.294Z,47.68
2023-04-18T13:01:20.217Z,47.64
2023-04-18T13:04:03.987Z,47.74
2023-04-18T13:06:42.998Z,48.37
2023-04-18T13:09:16.642Z,48.61
2023-04-18T13:11:49.709Z,48.70
2023-04-18T13:14:22.893Z,49.00
2023-04-18T13:16:58.785Z,49.44
2023-04-18T13:19:32.663Z,49.48
2023-04-18T13:22:07.576Z,49.99
2023-04-18T13:24:40.435Z,50.00
2023-04-18T13:27:13.451Z,49.84
2023-04-18T13:29:51.213Z,50.08
2023-04-18T13:32:40.973Z,50.41
2023-04-18T13:35:20.793Z,50.67
2023-04-18T13:37:55.145Z,50.35
2023-04-18T13:40:39.151Z,50.04
2023-04-18T13:43:15.539Z,50.01
2023-04-18T13:45:55.450Z,49.87
2023-04-18T13:48:28.405Z,50.04
2023-04-18T13:51:07.166Z,50.06
2023-04-18T13:53:43.497Z,49.98
2023-04-18T13:56:16.788Z,50.01
2023-04-18T13:58:49.833Z,49.62
2023-04-18T14:01:23.399Z,49.52
2023-04-18T14:03:56.443Z,49.78
2023-04-18T14:06:32.748Z,49.58
2023-04-18T14:09:07.835Z,49.37
2023-04-18T14:11:40.842Z,49.59
2023-04-18T14:14:13.925Z,49.42
2023-04-18T14:16:46.809Z,49.22
2023-04-18T14:19:19.950Z,49.40
2023-04-18T14:21:52.914Z,49.34
2023-04-18T14:24:42.421Z,49.67
2023-04-18T14:27:15.801Z,49.27
2023-04-18T14:29:49.531Z,49.66
2023-04-18T14:32:34.536Z,49.63
2023-04-18T14:35:11.321Z,49.54
2023-04-18T14:37:44.782Z,49.87
2023-04-18T14:40:19.388Z,49.68
2023-04-18T14:42:52.549Z,50.52
2023-04-18T14:45:28.312Z,50.58
2023-04-18T14:48:04.333Z,50.49
2023-04-18T14:50:38.734Z,50.47
2023-04-18T14:53:13.646Z,50.47
2023-04-18T14:55:48.030Z,49.96
2023-04-18T14:58:21.798Z,49.66
2023-04-18T15:01:00.754Z,49.61
2023-04-18T15:03:34.278Z,49.69
2023-04-18T15:06:08.122Z,49.36
2023-04-18T15:11:42.247Z,49.42
2023-04-18T15:14:15.807Z,49.25
2023-04-18T15:16:50.326Z,48.81
2023-04-18T15:19:24.596Z,48.77
2023-04-18T15:21:57.554Z,48.43
2023-04-18T15:24:30.653Z,48.50
2023-04-18T15:27:11.347Z,48.64
2023-04-18T15:29:44.383Z,48.54
2023-04-18T15:32:18.073Z,48.08
2023-04-18T15:34:53.951Z,48.24
2023-04-18T15:37:27.867Z,48.40
2023-04-18T15:40:06.074Z,48.30
2023-04-18T15:42:41.590Z,48.66
2023-04-18T15:45:15.161Z,48.81
2023-04-18T15:47:47.959Z,48.48
2023-04-18T15:50:21.113Z,48.25
2023-04-18T15:52:54.166Z,48.54
2023-04-18T15:55:27.208Z,48.82
2023-04-18T15:58:01.586Z,48.39
2023-04-18T16:00:34.478Z,48.72
2023-04-18T16:03:09.894Z,48.98
2023-04-18T16:05:42.997Z,48.65
2023-04-18T16:08:18.776Z,48.81
2023-04-18T16:10:53.053Z,48.25
2023-04-18T16:13:31.382Z,48.27
2023-04-18T16:16:05.578Z,48.10
2023-04-18T16:18:38.522Z,48.16
2023-04-18T16:21:18.667Z,48.12
2023-04-18T16:23:51.530Z,48.19
2023-04-18T16:26:24.984Z,47.52
2023-04-18T16:28:59.213Z,47.45
2023-04-18T16:31:32.240Z,47.21
2023-04-18T16:34:08.015Z,47.28
2023-04-18T16:36:40.974Z,47.32
2023-04-18T16:39:15.760Z,47.35
2023-04-18T16:41:48.580Z,47.23
2023-04-18T16:44:22.807Z,47.14
2023-04-18T16:46:55.707Z,47.49
2023-04-18T16:49:28.727Z,47.27
2023-04-18T16:52:01.846Z,47.29
2023-04-18T16:54:34.850Z,47.78
2023-04-18T16:57:07.663Z,47.82
2023-04-18T16:59:41.966Z,47.77
2023-04-18T17:02:15.057Z,47.57
2023-04-18T17:04:48.993Z,47.80
2023-04-18T17:07:24.620Z,47.65
2023-04-18T17:10:00.604Z,48.07
2023-04-18T17:12:33.526Z,48.17
2023-04-18T17:15:08.846Z,48.53
2023-04-18T17:17:41.802Z,48.24
2023-04-18T17:20:15.994Z,48.56
2023-04-18T17:22:49.019Z,48.60
2023-04-18T17:25:24.448Z,48.93
2023-04-18T17:27:57.500Z,48.58
2023-04-18T17:30:31.770Z,48.98
2023-04-18T17:33:04.700Z,49.10
2023-04-18T17:35:37.654Z,49.09
2023-04-18T17:38:11.495Z,49.35
2023-04-18T17:40:48.418Z,49.48
2023-04-18T17:43:21.501Z,49.46
2023-04-18T17:45:56.935Z,49.73
2023-04-18T17:48:29.799Z,49.84
2023-04-18T17:51:02.722Z,49.57
2023-04-18T17:53:35.719Z,49.63
2023-04-18T17:56:08.640Z,49.72
2023-04-18T17:58:41.495Z,49.77
2023-04-18T18:01:19.889Z,49.88
2023-04-18T18:03:53.906Z,50.13
2023-04-18T18:06:27.852Z,49.80
2023-04-18T18:09:00.667Z,50.12
2023-04-18T18:11:33.499Z,50.27
2023-04-18T18:14:06.289Z,49.99
2023-04-18T18:16:40.912Z,50.11
2023-04-18T18:19:16.996Z,50.32
2023-04-18T18:21:52.756Z,50.25
2023-04-18T18:24:27.148Z,50.42
2023-04-18T18:27:00.472Z,50.22
2023-04-18T18:29:36.865Z,50.44
2023-04-18T18:32:11.112Z,50.46
2023-04-18T18:34:46.700Z,50.14
2023-04-18T18:37:19.735Z,50.39
2023-04-18T18:39:52.756Z,50.19
2023-04-18T18:42:25.749Z,50.46
2023-04-18T18:44:58.675Z,50.51
2023-04-18T18:47:34.262Z,50.55
2023-04-18T18:50:07.902Z,50.45
2023-04-18T18:52:43.097Z,50.61
2023-04-18T18:55:16.465Z,50.68
2023-04-18T18:57:49.460Z,50.57
2023-04-18T19:00:22.514Z,50.52
2023-04-18T19:02:59.122Z,50.74
2023-04-18T19:05:32.060Z,50.50
2023-04-18T19:08:06.541Z,50.84
2023-04-18T19:10:40.958Z,50.95
2023-04-18T19:13:18.782Z,51.02
2023-04-18T19:15:51.941Z,51.15
2023-04-18T19:18:27.990Z,50.90
2023-04-18T19:21:04.477Z,51.03
2023-04-18T19:23:37.382Z,51.26
2023-04-18T19:26:10.825Z,51.32
2023-04-18T19:28:43.658Z,51.34
2023-04-18T19:31:16.483Z,51.20
2023-04-18T19:33:53.208Z,51.30
2023-04-18T19:36:26.349Z,51.43
2023-04-18T19:38:59.234Z,51.44
2023-04-18T19:41:32.078Z,51.49
2023-04-18T19:44:05.506Z,51.38
2023-04-18T19:46:38.420Z,51.39
2023-04-18T19:49:12.911Z,51.72
2023-04-18T19:51:45.974Z,51.78
2023-04-18T19:54:21.640Z,51.77
2023-04-18T19:56:54.864Z,51.81
2023-04-18T19:59:27.749Z,51.95
2023-04-18T20:02:03.458Z,52.10
2023-04-18T20:04:41.721Z,52.27
2023-04-18T20:07:14.739Z,52.57
2023-04-18T20:09:47.580Z,52.69
2023-04-18T20:12:20.968Z,52.93
2023-04-18T20:14:55.815Z,53.26
2023-04-18T20:17:30.498Z,53.40
2023-04-18T20:20:11.461Z,53.63
2023-04-18T20:22:46.239Z,53.74
2023-04-18T20:25:19.196Z,53.90
2023-04-18T20:27:52.002Z,54.24
2023-04-18T20:30:25.023Z,54.42
2023-04-18T20:32:57.924Z,54.39
2023-04-18T20:35:32.125Z,54.40
2023-04-18T20:38:07.186Z,54.62
2023-04-18T20:40:40.231Z,54.86
2023-04-18T20:43:17.303Z,54.93
2023-04-18T20:45:51.466Z,54.88
2023-04-18T20:48:24.405Z,55.14
2023-04-18T20:50:58.582Z,55.32
2023-04-18T20:53:31.785Z,55.35
2023-04-18T20:56:07.876Z,55.35
2023-04-18T20:58:41.827Z,55.60
2023-04-18T21:01:14.896Z,55.85
2023-04-18T21:03:49.171Z,55.76
2023-04-18T21:06:23.463Z,55.99
2023-04-18T21:08:56.324Z,56.46
2023-04-18T21:11:29.606Z,56.19
2023-04-18T21:14:03.814Z,56.31
2023-04-18T21:16:39.356Z,56.56
2023-04-18T21:19:12.361Z,56.35
2023-04-18T21:21:50.798Z,56.73
2023-04-18T21:24:27.982Z,56.70
2023-04-18T21:27:00.765Z,56.84
2023-04-18T21:29:36.451Z,56.76
2023-04-18T21:32:09.389Z,56.94
2023-04-18T21:34:42.225Z,56.92
2023-04-18T21:37:16.610Z,57.00
2023-04-18T21:39:54.724Z,57.00
2023-04-18T21:42:30.782Z,56.95
2023-04-18T21:45:10.317Z,57.10
2023-04-18T21:47:45.451Z,57.08
2023-04-18T21:50:19.462Z,57.15
2023-04-18T21:52:57.339Z,57.35
2023-04-18T21:55:31.220Z,57.44
2023-04-18T21:58:06.959Z,57.44
2023-04-18T22:00:39.947Z,57.49
2023-04-18T22:03:13.189Z,57.33
2023-04-18T22:05:47.302Z,57.44
2023-04-18T22:08:25.858Z,57.53
2023-04-18T22:11:00.273Z,57.57
2023-04-18T22:13:33.926Z,57.86
2023-04-18T22:16:08.588Z,57.73
2023-04-18T22:18:41.432Z,58.01
2023-04-18T22:21:14.250Z,57.93
2023-04-18T22:23:48.678Z,57.98
2023-04-18T22:26:21.749Z,58.16
2023-04-18T22:28:54.534Z,58.30
2023-04-18T22:31:27.539Z,58.58
2023-04-18T22:34:01.649Z,58.59
2023-04-18T22:36:34.521Z,58.73
2023-04-18T22:39:10.098Z,58.88
2023-04-18T22:41:43.060Z,59.27
2023-04-18T22:44:16.230Z,59.32
2023-04-18T22:46:49.540Z,59.36
2023-04-18T22:49:23.252Z,59.57
2023-04-18T22:51:55.889Z,58.79
2023-04-18T22:54:30.049Z,59.66
2023-04-18T22:57:03.300Z,59.84
2023-04-18T22:59:36.219Z,60.09
2023-04-18T23:02:09.317Z,60.19
2023-04-18T23:04:45.340Z,60.07
2023-04-18T23:07:18.289Z,60.44
2023-04-18T23:09:52.512Z,60.47
2023-04-18T23:12:26.813Z,60.49
2023-04-18T23:14:59.621Z,60.56
2023-04-18T23:17:32.435Z,60.88
2023-04-18T23:20:06.897Z,60.98
2023-04-18T23:22:39.695Z,61.17
2023-04-18T23:25:14.061Z,61.41
2023-04-18T23:27:46.917Z,61.71
2023-04-18T23:30:19.744Z,61.90
2023-04-18T23:32:52.644Z,62.06
2023-04-18T23:35:25.518Z,62.58
2023-04-18T23:37:58.402Z,62.79
2023-04-18T23:40:32.769Z,63.18
2023-04-18T23:43:05.934Z,63.37
2023-04-18T23:45:38.747Z,63.47
2023-04-18T23:48:11.633Z,63.72
2023-04-18T23:50:46.874Z,64.13
2023-04-18T23:53:20.344Z,64.28
2023-04-18T23:55:54.696Z,64.49
2023-04-18T23:58:28.085Z,64.43
